This is the latest recevied weather packets stored in our database for station/object EA4BCR. If no packets are shown the sender has not sent any weather packets the latest 10 day(s).
| Time | Temp. | Humidity | Pressure | Rain* | Wind** | Luminosity | Snow |
|---|---|---|---|---|---|---|---|
| 1788095417 | 31.67° C | 21% | 1012.4 hPa | - | - | - | - |
| 1788094817 | 31.67° C | 21% | 1012.5 hPa | - | - | - | - |
| 1788094218 | 30.56° C | 24% | 1012.9 hPa | - | - | - | - |
| 1788093617 | 31.67° C | 20% | 1012.7 hPa | - | - | - | - |
| 1788093018 | 31.67° C | 22% | 1012.9 hPa | - | - | - | - |
| 1788092417 | 31.11° C | 23% | 1012.9 hPa | - | - | - | - |
| 1788091817 | 31.11° C | 21% | 1013.1 hPa | - | - | - | - |
| 1788091217 | 31.11° C | 22% | 1013.1 hPa | - | - | - | - |
| 1788090617 | 30.56° C | 21% | 1013.4 hPa | - | - | - | - |
| 1788090017 | 30.56° C | 23% | 1013.4 hPa | - | - | - | - |
| 1788089417 | 29.44° C | 25% | 1013.7 hPa | - | - | - | - |
| 1788088817 | 29.44° C | 24% | 1013.9 hPa | - | - | - | - |
| 1788088218 | 30° C | 22% | 1013.8 hPa | - | - | - | - |
| 1788087617 | 29.44° C | 22% | 1014 hPa | - | - | - | - |
| 1788087018 | 29.44° C | 23% | 1014.1 hPa | - | - | - | - |
| 1788086417 | 29.44° C | 23% | 1014.2 hPa | - | - | - | - |
| 1788085817 | 28.89° C | 23% | 1014.3 hPa | - | - | - | - |
| 1788085218 | 28.33° C | 24% | 1014.5 hPa | - | - | - | - |
| 1788084617 | 27.78° C | 25% | 1014.8 hPa | - | - | - | - |
| 1788084018 | 27.22° C | 27% | 1015.1 hPa | - | - | - | - |
| 1788083417 | 26.67° C | 29% | 1015.4 hPa | - | - | - | - |
| 1788082819 | 26.11° C | 31% | 1015.6 hPa | - | - | - | - |
| 1788082217 | 25.56° C | 31% | 1015.8 hPa | - | - | - | - |
| 1788081618 | 25° C | 35% | 1016.1 hPa | - | - | - | - |
| 1788081018 | 24.44° C | 37% | 1016.2 hPa | - | - | - | - |
* Rain since midnight (hover to see other rain measurements)
** Current wind speed in m/s (hover to see current wind gust speed)